Time;durP1;ratioP1;P1;durP2;ratioP2;P2;SDS_P1;SDS_P2;PMS_P1;PMS_P2;Temp;Humidity;BMP_temperature;BMP_pressure;BME280_temperature;BME280_humidity;BME280_pressure;Samples;Min_cycle;Max_cycle;Signal;HPM_P1;HPM_P2
2022/05/12 00:01:54;;;;;;;15.20;5.53;;;;;;;;;;4970968;28;20260;-68
2022/05/12 00:04:20;;;;;;;13.07;5.55;;;;;;;;;;4978545;28;20238;-69
2022/05/12 00:06:48;;;;;;;12.70;5.30;;;;;;;;;;4987603;28;20283;-68
2022/05/12 00:09:13;;;;;;;12.50;5.57;;;;;;;;;;4971343;28;20228;-70
2022/05/12 00:11:39;;;;;;;15.53;5.47;;;;;;;;;;4981499;28;20229;-69
2022/05/12 00:14:06;;;;;;;15.40;5.60;;;;;;;;;;4981176;28;20351;-69
2022/05/12 00:16:34;;;;;;;14.83;5.70;;;;;;;;;;4983556;28;20225;-70
2022/05/12 00:19:02;;;;;;;16.43;5.77;;;;;;;;;;4981953;28;20226;-70
2022/05/12 00:21:28;;;;;;;13.93;5.67;;;;;;;;;;4981578;28;20582;-69
2022/05/12 00:23:59;;;;;;;14.13;6.07;;;;;;;;;;4986458;28;20597;-69
2022/05/12 00:26:26;;;;;;;14.30;5.43;;;;;;;;;;4968854;28;20224;-70
2022/05/12 00:28:51;;;;;;;12.03;6.00;;;;;;;;;;4987400;28;20608;-68
2022/05/12 00:31:17;;;;;;;12.27;5.20;;;;;;;;;;4967884;28;20226;-70
2022/05/12 00:33:45;;;;;;;13.17;5.47;;;;;;;;;;4976063;28;20312;-71
2022/05/12 00:36:10;;;;;;;11.97;5.90;;;;;;;;;;4986711;28;20236;-70
2022/05/12 00:38:43;;;;;;;12.70;5.72;;;;;;;;;;4983006;28;20319;-70
2022/05/12 00:41:08;;;;;;;12.07;5.30;;;;;;;;;;4987549;28;20226;-71
2022/05/12 00:43:36;;;;;;;12.75;5.78;;;;;;;;;;4987336;28;20229;-69
2022/05/12 00:46:03;;;;;;;11.75;5.40;;;;;;;;;;4986237;28;20229;-69
2022/05/12 00:48:28;;;;;;;11.17;5.87;;;;;;;;;;4983731;28;20276;-70
2022/05/12 00:50:54;;;;;;;12.57;5.77;;;;;;;;;;4987878;28;20234;-68
2022/05/12 00:53:30;;;;;;;12.53;6.10;;;;;;;;;;4967893;28;20610;-68
2022/05/12 00:55:55;;;;;;;11.33;5.60;;;;;;;;;;5090953;23;20727;-82
2022/05/12 00:58:23;;;;;;;13.87;6.17;;;;;;;;;;5012529;28;20272;-81
2022/05/12 01:00:56;;;;;;;11.97;5.60;;;;;;;;;;5010659;28;20270;-84
2022/05/12 01:03:23;;;;;;;10.27;5.37;;;;;;;;;;4996982;28;20229;-83
2022/05/12 01:05:49;;;;;;;15.17;5.87;;;;;;;;;;5010719;28;20220;-80
2022/05/12 01:08:18;;;;;;;10.60;5.33;;;;;;;;;;5001863;28;20228;-82
2022/05/12 01:10:57;;;;;;;9.67;5.43;;;;;;;;;;4997583;28;20310;-84
2022/05/12 01:13:22;;;;;;;14.13;5.40;;;;;;;;;;4971931;23;20459;-70
2022/05/12 01:15:52;;;;;;;10.80;5.43;;;;;;;;;;5000801;28;20319;-69
2022/05/12 01:18:26;;;;;;;13.50;5.60;;;;;;;;;;4971042;28;20232;-69
2022/05/12 01:21:17;;;;;;;11.30;5.67;;;;;;;;;;4955979;28;20224;-69
2022/05/12 01:23:43;;;;;;;9.47;5.40;;;;;;;;;;4987371;28;20242;-69
2022/05/12 01:26:12;;;;;;;10.90;5.73;;;;;;;;;;4946131;28;21002;-69
2022/05/12 01:28:38;;;;;;;13.83;5.77;;;;;;;;;;4962076;28;20220;-70
2022/05/12 01:31:06;;;;;;;10.93;5.77;;;;;;;;;;4949104;28;20237;-69
2022/05/12 01:33:32;;;;;;;10.10;5.87;;;;;;;;;;4977125;28;20750;-70
2022/05/12 01:35:58;;;;;;;9.60;5.80;;;;;;;;;;4963445;28;20229;-69
2022/05/12 01:38:35;;;;;;;10.77;6.10;;;;;;;;;;4984145;28;20228;-71
2022/05/12 01:41:02;;;;;;;11.23;5.90;;;;;;;;;;4941692;28;20276;-71
2022/05/12 01:43:28;;;;;;;9.67;5.57;;;;;;;;;;4977823;28;20316;-69
2022/05/12 01:45:57;;;;;;;10.47;5.40;;;;;;;;;;4966380;28;20761;-70
2022/05/12 01:48:27;;;;;;;10.05;5.43;;;;;;;;;;4951890;28;20815;-69
2022/05/12 01:51:04;;;;;;;9.40;5.43;;;;;;;;;;4959436;28;20661;-69
2022/05/12 01:53:32;;;;;;;12.43;5.77;;;;;;;;;;4975760;28;20283;-69
2022/05/12 01:55:58;;;;;;;11.50;5.70;;;;;;;;;;5001707;28;20275;-69
2022/05/12 01:58:28;;;;;;;8.30;5.30;;;;;;;;;;4982447;28;20593;-69
2022/05/12 02:00:58;;;;;;;6.63;4.53;;;;;;;;;;4972629;28;20226;-70
2022/05/12 02:03:24;;;;;;;7.38;3.53;;;;;;;;;;4951741;28;20242;-69
2022/05/12 02:05:49;;;;;;;9.50;3.63;;;;;;;;;;4973329;28;20243;-69
2022/05/12 02:08:15;;;;;;;6.87;3.07;;;;;;;;;;4962012;28;20213;-69
2022/05/12 02:10:47;;;;;;;5.23;2.30;;;;;;;;;;4958769;28;20340;-70
2022/05/12 02:13:13;;;;;;;5.60;2.30;;;;;;;;;;4976687;28;20224;-69
2022/05/12 02:15:43;;;;;;;4.32;2.25;;;;;;;;;;4969801;28;20229;-68
2022/05/12 02:18:10;;;;;;;4.67;2.47;;;;;;;;;;4959975;28;20265;-68
2022/05/12 02:20:36;;;;;;;3.27;2.20;;;;;;;;;;4928527;28;20253;-68
2022/05/12 02:23:04;;;;;;;6.33;2.40;;;;;;;;;;4957326;28;20273;-69
2022/05/12 02:25:29;;;;;;;5.50;2.33;;;;;;;;;;4958291;28;20669;-70
2022/05/12 02:27:57;;;;;;;4.27;2.10;;;;;;;;;;4959377;28;20218;-70
2022/05/12 02:30:24;;;;;;;4.37;2.13;;;;;;;;;;4981892;28;20295;-69
2022/05/12 02:32:52;;;;;;;3.17;1.90;;;;;;;;;;4968372;28;20312;-69
2022/05/12 02:35:17;;;;;;;4.37;1.70;;;;;;;;;;4962881;28;20237;-70
2022/05/12 02:37:43;;;;;;;3.97;2.00;;;;;;;;;;4960624;28;20236;-70
2022/05/12 02:40:10;;;;;;;5.93;2.27;;;;;;;;;;4988439;28;20225;-68
2022/05/12 02:42:38;;;;;;;4.00;2.03;;;;;;;;;;4932348;28;20237;-69
2022/05/12 02:45:07;;;;;;;3.47;2.03;;;;;;;;;;4979070;28;20224;-69
2022/05/12 02:47:35;;;;;;;4.27;2.07;;;;;;;;;;4951716;28;20232;-70
2022/05/12 02:50:05;;;;;;;3.23;1.80;;;;;;;;;;4936304;28;20231;-69
2022/05/12 02:52:31;;;;;;;3.07;1.90;;;;;;;;;;4980962;28;20246;-69
2022/05/12 02:54:56;;;;;;;5.43;1.93;;;;;;;;;;4964060;28;20785;-70
2022/05/12 02:57:24;;;;;;;4.23;1.67;;;;;;;;;;4972328;28;20313;-71
2022/05/12 02:59:50;;;;;;;3.77;1.40;;;;;;;;;;4943153;28;20312;-70
2022/05/12 03:02:18;;;;;;;5.07;1.77;;;;;;;;;;4992458;28;20224;-68
2022/05/12 03:04:46;;;;;;;3.13;1.60;;;;;;;;;;4980371;28;20385;-70
2022/05/12 03:07:11;;;;;;;2.90;1.47;;;;;;;;;;4975871;28;20221;-69
2022/05/12 03:09:40;;;;;;;2.77;1.40;;;;;;;;;;4955549;28;20213;-70
2022/05/12 03:12:06;;;;;;;4.90;1.50;;;;;;;;;;4969414;28;20322;-70
2022/05/12 03:14:31;;;;;;;4.90;1.70;;;;;;;;;;4972354;28;20305;-70
2022/05/12 03:17:07;;;;;;;3.17;1.37;;;;;;;;;;4976305;28;20230;-70
2022/05/12 03:19:32;;;;;;;2.53;1.30;;;;;;;;;;4957664;28;20216;-70
2022/05/12 03:21:59;;;;;;;3.33;1.20;;;;;;;;;;4964534;28;20807;-70
2022/05/12 03:24:24;;;;;;;2.40;1.40;;;;;;;;;;4963313;28;20245;-69
2022/05/12 03:26:49;;;;;;;3.00;1.50;;;;;;;;;;4997589;28;20689;-68
2022/05/12 03:29:16;;;;;;;3.40;1.37;;;;;;;;;;4980480;28;20251;-69
2022/05/12 03:31:42;;;;;;;1.53;1.00;;;;;;;;;;4964901;28;20236;-69
2022/05/12 03:34:11;;;;;;;1.97;1.40;;;;;;;;;;4977229;28;20226;-69
2022/05/12 03:36:39;;;;;;;3.27;1.20;;;;;;;;;;4957711;28;20314;-69
2022/05/12 03:39:05;;;;;;;3.63;1.10;;;;;;;;;;4953078;28;20277;-69
2022/05/12 03:41:31;;;;;;;3.10;1.40;;;;;;;;;;4963221;28;20229;-70
2022/05/12 03:46:43;;;;;;;3.63;1.10;;;;;;;;;;4981843;28;20256;-69
2022/05/12 03:49:11;;;;;;;2.40;1.17;;;;;;;;;;4992215;28;20229;-68
2022/05/12 03:51:42;;;;;;;1.73;0.90;;;;;;;;;;4948102;28;20252;-69
2022/05/12 03:54:07;;;;;;;1.77;1.00;;;;;;;;;;4966705;28;20221;-69
2022/05/12 03:56:37;;;;;;;1.83;0.87;;;;;;;;;;4964783;28;20248;-67
2022/05/12 03:59:03;;;;;;;1.37;1.00;;;;;;;;;;4971704;28;20236;-68
2022/05/12 04:01:34;;;;;;;2.37;1.13;;;;;;;;;;4979542;28;20239;-70
2022/05/12 04:04:02;;;;;;;2.43;1.00;;;;;;;;;;4973165;28;20770;-69
2022/05/12 04:06:27;;;;;;;2.70;1.20;;;;;;;;;;4979268;28;20722;-69
2022/05/12 04:08:53;;;;;;;2.47;1.30;;;;;;;;;;4992856;28;20217;-68
2022/05/12 04:11:18;;;;;;;1.50;1.10;;;;;;;;;;4995552;28;20244;-70
2022/05/12 04:13:44;;;;;;;3.87;1.23;;;;;;;;;;4984606;28;20288;-70
2022/05/12 04:16:10;;;;;;;2.33;1.33;;;;;;;;;;4978547;28;20217;-70
2022/05/12 04:18:40;;;;;;;2.90;1.10;;;;;;;;;;4978201;28;20224;-71
2022/05/12 04:21:05;;;;;;;2.17;1.10;;;;;;;;;;4977853;28;20746;-70
2022/05/12 04:23:31;;;;;;;4.47;1.30;;;;;;;;;;4994692;28;20216;-70
2022/05/12 04:25:56;;;;;;;1.60;1.10;;;;;;;;;;4969603;28;20776;-70
2022/05/12 04:28:25;;;;;;;3.13;1.40;;;;;;;;;;4993862;28;20360;-69
2022/05/12 04:30:53;;;;;;;3.50;1.30;;;;;;;;;;4947242;28;20237;-70
2022/05/12 04:36:05;;;;;;;3.63;1.30;;;;;;;;;;4983812;28;20227;-71
2022/05/12 04:38:30;;;;;;;2.10;1.10;;;;;;;;;;4981773;28;20311;-69
2022/05/12 04:40:58;;;;;;;2.53;1.20;;;;;;;;;;4972043;28;20634;-71
2022/05/12 04:43:23;;;;;;;5.33;1.47;;;;;;;;;;4964094;28;20312;-70
2022/05/12 04:45:49;;;;;;;3.67;1.20;;;;;;;;;;4963969;28;20240;-71
2022/05/12 04:48:14;;;;;;;3.33;1.37;;;;;;;;;;4976020;28;20225;-69
2022/05/12 04:50:40;;;;;;;4.13;1.27;;;;;;;;;;4997277;28;20304;-70
2022/05/12 04:53:10;;;;;;;3.57;1.60;;;;;;;;;;4977745;28;20738;-70
2022/05/12 04:55:38;;;;;;;3.10;1.40;;;;;;;;;;4983427;28;20229;-70
2022/05/12 04:58:04;;;;;;;2.47;1.33;;;;;;;;;;4977247;28;20226;-71
2022/05/12 05:00:41;;;;;;;2.03;1.30;;;;;;;;;;4994659;28;20703;-70
2022/05/12 05:03:09;;;;;;;3.57;1.77;;;;;;;;;;4961701;28;21211;-70
2022/05/12 05:05:37;;;;;;;5.50;1.80;;;;;;;;;;4967908;28;20233;-70
2022/05/12 05:08:03;;;;;;;2.33;1.70;;;;;;;;;;4981017;28;20756;-70
2022/05/12 05:10:28;;;;;;;5.73;1.60;;;;;;;;;;4960551;28;20284;-71
2022/05/12 05:12:56;;;;;;;4.40;1.43;;;;;;;;;;4965480;28;20229;-71
2022/05/12 05:15:23;;;;;;;4.03;1.50;;;;;;;;;;4959606;28;20771;-70
2022/05/12 05:17:51;;;;;;;4.03;1.70;;;;;;;;;;4957182;28;20249;-69
2022/05/12 05:20:20;;;;;;;4.90;2.03;;;;;;;;;;4977489;28;20232;-69
2022/05/12 05:22:51;;;;;;;2.80;1.60;;;;;;;;;;4982523;28;20304;-71
2022/05/12 05:25:16;;;;;;;2.87;1.60;;;;;;;;;;4954796;28;20233;-70
2022/05/12 05:27:42;;;;;;;4.23;2.40;;;;;;;;;;4961434;28;20771;-69
2022/05/12 05:30:12;;;;;;;5.20;3.00;;;;;;;;;;4961316;28;20542;-71
2022/05/12 05:32:40;;;;;;;4.30;3.10;;;;;;;;;;4941049;28;20684;-74
2022/05/12 05:35:06;;;;;;;4.23;3.07;;;;;;;;;;4942448;28;20218;-72
2022/05/12 05:37:31;;;;;;;4.53;3.20;;;;;;;;;;4962234;28;20245;-73
2022/05/12 05:39:57;;;;;;;4.57;3.33;;;;;;;;;;4975171;28;20737;-70
2022/05/12 05:42:23;;;;;;;6.33;3.57;;;;;;;;;;4963596;28;20240;-70
2022/05/12 05:44:48;;;;;;;6.97;4.10;;;;;;;;;;4966328;28;20228;-70
2022/05/12 05:47:14;;;;;;;5.20;4.40;;;;;;;;;;4965782;28;20660;-71
2022/05/12 05:49:41;;;;;;;6.37;4.50;;;;;;;;;;4949631;28;20218;-71
2022/05/12 05:54:53;;;;;;;6.93;4.73;;;;;;;;;;4972339;28;20730;-71
2022/05/12 05:57:30;;;;;;;5.63;4.67;;;;;;;;;;4975446;28;20221;-71
2022/05/12 05:59:58;;;;;;;6.43;5.13;;;;;;;;;;4977347;28;20269;-71
2022/05/12 06:02:24;;;;;;;8.27;5.70;;;;;;;;;;4993734;28;20214;-70
2022/05/12 06:04:50;;;;;;;6.63;5.33;;;;;;;;;;4949114;28;20261;-69
2022/05/12 06:07:17;;;;;;;5.47;4.83;;;;;;;;;;4981346;28;20221;-70
2022/05/12 06:09:43;;;;;;;9.33;4.37;;;;;;;;;;4984534;28;20292;-71
2022/05/12 06:12:09;;;;;;;7.00;4.90;;;;;;;;;;4961186;28;20252;-70
2022/05/12 06:14:34;;;;;;;5.27;4.73;;;;;;;;;;4989156;28;20714;-71
2022/05/12 06:17:03;;;;;;;14.07;4.33;;;;;;;;;;4996377;28;20221;-72
2022/05/12 06:19:28;;;;;;;7.30;4.10;;;;;;;;;;4980288;28;20248;-73
2022/05/12 06:22:00;;;;;;;5.67;3.07;;;;;;;;;;4963483;28;20232;-71
2022/05/12 06:24:30;;;;;;;6.37;3.60;;;;;;;;;;4981023;28;20683;-72
2022/05/12 06:26:58;;;;;;;5.97;3.03;;;;;;;;;;4963813;28;20272;-72
2022/05/12 06:29:25;;;;;;;3.37;2.63;;;;;;;;;;4980509;28;20213;-70
2022/05/12 06:31:51;;;;;;;4.43;2.83;;;;;;;;;;4961326;28;20241;-70
2022/05/12 06:34:19;;;;;;;4.83;2.90;;;;;;;;;;4973152;28;20236;-71
2022/05/12 06:36:45;;;;;;;3.70;2.40;;;;;;;;;;4994494;28;20243;-71
2022/05/12 06:39:11;;;;;;;3.17;2.27;;;;;;;;;;4965635;28;20240;-71
2022/05/12 06:41:36;;;;;;;4.90;2.53;;;;;;;;;;4984649;28;20299;-71
2022/05/12 06:44:04;;;;;;;5.97;2.60;;;;;;;;;;4966430;28;20228;-71
2022/05/12 06:46:31;;;;;;;6.00;2.40;;;;;;;;;;4960729;28;20248;-71
2022/05/12 06:48:57;;;;;;;4.73;2.67;;;;;;;;;;4956259;28;20233;-72
2022/05/12 06:51:23;;;;;;;4.17;2.23;;;;;;;;;;4980205;28;20319;-71
2022/05/12 06:53:53;;;;;;;5.23;2.10;;;;;;;;;;4954742;28;20231;-70
2022/05/12 06:56:18;;;;;;;3.20;2.22;;;;;;;;;;4969806;28;20264;-71
2022/05/12 06:58:44;;;;;;;5.57;2.10;;;;;;;;;;4963421;28;20789;-71
2022/05/12 07:01:09;;;;;;;3.77;1.70;;;;;;;;;;4980900;28;20217;-70
2022/05/12 07:03:35;;;;;;;2.88;1.90;;;;;;;;;;4977973;28;20227;-71
2022/05/12 07:06:03;;;;;;;4.10;2.10;;;;;;;;;;4971194;28;20225;-71
2022/05/12 07:08:31;;;;;;;4.03;2.05;;;;;;;;;;4951001;28;20645;-70
2022/05/12 07:10:58;;;;;;;4.53;2.38;;;;;;;;;;4975821;28;20240;-72
2022/05/12 07:13:25;;;;;;;6.30;1.98;;;;;;;;;;4980591;28;20781;-71
2022/05/12 07:15:51;;;;;;;2.10;1.60;;;;;;;;;;4998424;28;20233;-70
2022/05/12 07:18:17;;;;;;;4.40;1.77;;;;;;;;;;4997425;28;20216;-71
2022/05/12 07:28:55;;;;;;;2.97;1.77;;;;;;;;;;4985010;28;20790;-70
2022/05/12 07:31:24;;;;;;;2.70;1.80;;;;;;;;;;4997003;28;20605;-70
2022/05/12 07:33:52;;;;;;;2.47;1.45;;;;;;;;;;4969545;28;20225;-71
2022/05/12 07:36:25;;;;;;;4.72;1.52;;;;;;;;;;4959606;28;20235;-72
2022/05/12 07:38:53;;;;;;;2.97;1.42;;;;;;;;;;4972877;28;20232;-72
2022/05/12 07:41:19;;;;;;;3.40;1.60;;;;;;;;;;4940123;28;20291;-72
2022/05/12 07:43:45;;;;;;;3.45;1.25;;;;;;;;;;5003205;28;20220;-71
2022/05/12 07:46:11;;;;;;;3.30;1.40;;;;;;;;;;4968391;28;20221;-71
2022/05/12 07:48:36;;;;;;;2.35;1.50;;;;;;;;;;4973859;28;20217;-71
2022/05/12 07:51:02;;;;;;;2.25;1.60;;;;;;;;;;4995723;28;20221;-70
2022/05/12 07:53:28;;;;;;;3.83;1.58;;;;;;;;;;4979805;28;20224;-71
2022/05/12 07:55:55;;;;;;;3.42;1.40;;;;;;;;;;4997872;28;20312;-71
2022/05/12 07:58:21;;;;;;;3.28;1.48;;;;;;;;;;4939561;28;20228;-70
2022/05/12 08:00:48;;;;;;;2.72;1.38;;;;;;;;;;4953969;28;20295;-71
2022/05/12 08:03:14;;;;;;;2.25;1.50;;;;;;;;;;4978019;28;20221;-70
2022/05/12 08:05:41;;;;;;;3.22;1.30;;;;;;;;;;4997816;28;20323;-71
2022/05/12 08:08:07;;;;;;;5.30;1.70;;;;;;;;;;4968453;28;20303;-71
2022/05/12 08:10:33;;;;;;;4.15;1.30;;;;;;;;;;4974163;28;20312;-71
2022/05/12 08:12:59;;;;;;;3.15;1.50;;;;;;;;;;4994380;28;20277;-71
2022/05/12 08:15:25;;;;;;;4.82;1.30;;;;;;;;;;4975762;28;20249;-71
2022/05/12 08:17:52;;;;;;;4.65;1.42;;;;;;;;;;4978929;28;20234;-70
2022/05/12 08:20:20;;;;;;;2.55;1.25;;;;;;;;;;4995145;28;20271;-70
2022/05/12 08:22:48;;;;;;;3.33;1.52;;;;;;;;;;4981683;28;20230;-70
2022/05/12 08:25:13;;;;;;;2.58;1.67;;;;;;;;;;4982419;28;20236;-70
2022/05/12 08:27:43;;;;;;;2.63;1.30;;;;;;;;;;4972714;28;20373;-70
2022/05/12 08:30:13;;;;;;;3.03;1.20;;;;;;;;;;4969116;28;20229;-70
2022/05/12 08:32:38;;;;;;;2.55;1.10;;;;;;;;;;4989806;28;20573;-70
2022/05/12 08:35:07;;;;;;;5.03;1.40;;;;;;;;;;4962117;28;20226;-71
2022/05/12 08:37:33;;;;;;;2.08;1.10;;;;;;;;;;4962541;28;20727;-71
2022/05/12 08:40:01;;;;;;;2.63;1.13;;;;;;;;;;4963245;28;20265;-71
2022/05/12 08:42:27;;;;;;;2.58;1.23;;;;;;;;;;4990043;28;20730;-71
2022/05/12 08:44:53;;;;;;;4.22;1.17;;;;;;;;;;4981934;28;20917;-72
2022/05/12 08:47:26;;;;;;;3.03;1.33;;;;;;;;;;4964389;28;20224;-72
2022/05/12 08:49:52;;;;;;;3.30;1.20;;;;;;;;;;4975954;28;20265;-70
2022/05/12 08:52:22;;;;;;;2.13;1.30;;;;;;;;;;4959424;28;20325;-70
2022/05/12 08:54:53;;;;;;;2.00;1.10;;;;;;;;;;4976251;28;20233;-70
2022/05/12 08:57:24;;;;;;;3.40;1.05;;;;;;;;;;4976179;28;20219;-71
2022/05/12 08:59:50;;;;;;;1.95;1.10;;;;;;;;;;4975411;28;20816;-71
2022/05/12 09:02:49;;;;;;;4.63;1.20;;;;;;;;;;4988467;28;20237;-69
2022/05/12 09:05:21;;;;;;;1.92;0.98;;;;;;;;;;4975713;28;20229;-71
2022/05/12 09:07:51;;;;;;;1.60;1.00;;;;;;;;;;4981414;28;20225;-71
2022/05/12 09:10:42;;;;;;;4.43;1.27;;;;;;;;;;4971001;28;20218;-72
2022/05/12 09:13:15;;;;;;;2.58;0.93;;;;;;;;;;4969866;28;20223;-72
2022/05/12 09:15:46;;;;;;;3.13;0.88;;;;;;;;;;4973948;28;20244;-71
2022/05/12 09:18:29;;;;;;;1.50;1.08;;;;;;;;;;4965278;28;20226;-73
2022/05/12 09:21:02;;;;;;;2.08;0.90;;;;;;;;;;4976823;28;20213;-71
2022/05/12 09:23:30;;;;;;;3.38;1.10;;;;;;;;;;4964840;28;20227;-71
2022/05/12 09:25:56;;;;;;;2.05;1.00;;;;;;;;;;4980530;28;20237;-70
2022/05/12 09:28:34;;;;;;;2.78;1.00;;;;;;;;;;4977458;28;20308;-71
2022/05/12 09:31:02;;;;;;;1.95;0.90;;;;;;;;;;4960701;28;20225;-71
2022/05/12 09:33:31;;;;;;;1.30;0.68;;;;;;;;;;4963624;28;20378;-71
2022/05/12 09:35:59;;;;;;;3.03;1.05;;;;;;;;;;4996023;28;20268;-74
2022/05/12 09:38:31;;;;;;;2.97;1.08;;;;;;;;;;4950596;28;20294;-71
2022/05/12 09:41:18;;;;;;;1.42;0.82;;;;;;;;;;4990570;28;20214;-70
2022/05/12 09:43:44;;;;;;;2.80;0.73;;;;;;;;;;5003059;28;20699;-70
2022/05/12 09:46:16;;;;;;;2.63;0.80;;;;;;;;;;4950228;28;20236;-70
2022/05/12 09:48:41;;;;;;;1.45;0.90;;;;;;;;;;4990729;28;20233;-72
2022/05/12 09:51:25;;;;;;;3.05;1.20;;;;;;;;;;4974743;28;20222;-72
2022/05/12 09:53:52;;;;;;;2.00;0.90;;;;;;;;;;4980686;28;20656;-71
2022/05/12 09:56:34;;;;;;;2.90;1.10;;;;;;;;;;4950033;28;20241;-71
2022/05/12 09:59:19;;;;;;;2.22;1.30;;;;;;;;;;4983297;28;20780;-71
2022/05/12 10:01:49;;;;;;;1.65;1.00;;;;;;;;;;4977094;28;20252;-70
2022/05/12 10:09:54;;;;;;;1.60;0.90;;;;;;;;;;4982256;28;20223;-71
2022/05/12 10:12:22;;;;;;;2.67;1.00;;;;;;;;;;4961204;28;20714;-71
2022/05/12 10:14:58;;;;;;;3.10;0.80;;;;;;;;;;4982281;28;20221;-71
2022/05/12 10:17:35;;;;;;;2.75;1.00;;;;;;;;;;4939821;28;20341;-71
2022/05/12 10:20:13;;;;;;;1.52;0.80;;;;;;;;;;4965851;28;20231;-69
2022/05/12 10:22:48;;;;;;;1.50;0.77;;;;;;;;;;4969480;28;20232;-70
2022/05/12 10:25:22;;;;;;;3.35;1.15;;;;;;;;;;4963998;28;20220;-70
2022/05/12 10:28:44;;;;;;;3.40;0.95;;;;;;;;;;4993789;28;20240;-70
2022/05/12 10:31:35;;;;;;;1.95;0.82;;;;;;;;;;4850361;29;20717;-71
2022/05/12 10:34:16;;;;;;;2.17;0.80;;;;;;;;;;4884392;29;20241;-71
2022/05/12 10:36:44;;;;;;;2.58;0.90;;;;;;;;;;4977307;28;20252;-69
2022/05/12 10:39:15;;;;;;;2.60;0.70;;;;;;;;;;4997875;28;20309;-70
2022/05/12 10:42:10;;;;;;;2.00;0.70;;;;;;;;;;4986186;28;20521;-71
2022/05/12 10:45:20;;;;;;;1.75;1.00;;;;;;;;;;4968342;28;20711;-72
2022/05/12 10:47:50;;;;;;;1.55;0.70;;;;;;;;;;4958187;28;20222;-71
2022/05/12 10:50:28;;;;;;;2.13;0.93;;;;;;;;;;4941930;28;20692;-69
2022/05/12 10:52:56;;;;;;;1.17;0.80;;;;;;;;;;4966938;28;20236;-69
2022/05/12 10:55:42;;;;;;;2.13;0.70;;;;;;;;;;4973593;28;20241;-70
2022/05/12 10:58:26;;;;;;;2.63;1.10;;;;;;;;;;4986202;28;20749;-70
2022/05/12 11:01:06;;;;;;;2.63;0.80;;;;;;;;;;4966877;28;21068;-70
2022/05/12 11:03:44;;;;;;;2.03;0.90;;;;;;;;;;4995887;28;20233;-70
2022/05/12 11:06:12;;;;;;;4.38;1.02;;;;;;;;;;4957354;28;20260;-69
2022/05/12 11:08:50;;;;;;;2.03;0.93;;;;;;;;;;4969420;28;20231;-70
2022/05/12 11:11:24;;;;;;;2.55;0.90;;;;;;;;;;4977579;28;20240;-70
2022/05/12 11:13:59;;;;;;;2.70;0.80;;;;;;;;;;4976259;28;20236;-71
2022/05/12 11:16:41;;;;;;;2.28;0.80;;;;;;;;;;4994318;28;20229;-70
2022/05/12 11:19:22;;;;;;;1.48;0.73;;;;;;;;;;4948146;28;20312;-75
2022/05/12 11:22:25;;;;;;;1.45;0.90;;;;;;;;;;4937952;28;20683;-70
2022/05/12 11:25:23;;;;;;;2.28;0.73;;;;;;;;;;4963960;28;20777;-70
2022/05/12 11:31:21;;;;;;;2.00;0.90;;;;;;;;;;4989532;28;20229;-70
2022/05/12 11:33:56;;;;;;;1.27;0.70;;;;;;;;;;4967195;28;20613;-71
2022/05/12 11:36:35;;;;;;;2.25;0.80;;;;;;;;;;4952011;28;20311;-72
2022/05/12 11:39:19;;;;;;;2.22;0.90;;;;;;;;;;4966300;28;20265;-70
2022/05/12 11:41:47;;;;;;;1.67;0.80;;;;;;;;;;4961971;28;20701;-71
2022/05/12 11:44:29;;;;;;;2.13;0.75;;;;;;;;;;4970591;28;20779;-69
2022/05/12 11:47:09;;;;;;;3.30;0.60;;;;;;;;;;4967165;28;20644;-70
2022/05/12 11:49:46;;;;;;;3.55;0.80;;;;;;;;;;4964351;28;20634;-69
2022/05/12 11:52:34;;;;;;;2.88;0.90;;;;;;;;;;4990509;28;20245;-70
2022/05/12 11:55:03;;;;;;;2.65;0.90;;;;;;;;;;4991736;28;20235;-71
2022/05/12 11:57:43;;;;;;;2.47;1.00;;;;;;;;;;4961470;28;20209;-69
2022/05/12 12:00:09;;;;;;;1.88;0.95;;;;;;;;;;4983390;28;20225;-70
2022/05/12 12:02:41;;;;;;;1.45;0.70;;;;;;;;;;4999236;28;20243;-69
2022/05/12 12:05:10;;;;;;;2.25;1.20;;;;;;;;;;4953765;28;20774;-72
2022/05/12 12:07:40;;;;;;;3.45;0.90;;;;;;;;;;4976468;28;20247;-72
2022/05/12 12:10:11;;;;;;;2.25;0.80;;;;;;;;;;4989379;28;20229;-71
2022/05/12 12:12:40;;;;;;;1.42;0.80;;;;;;;;;;4979283;28;20599;-71
2022/05/12 12:15:06;;;;;;;4.20;1.00;;;;;;;;;;4994864;28;20304;-72
2022/05/12 12:17:39;;;;;;;2.97;0.93;;;;;;;;;;4949364;28;20220;-72
2022/05/12 12:20:05;;;;;;;3.75;2.95;;;;;;;;;;4975636;28;20699;-70
2022/05/12 12:22:44;;;;;;;2.30;1.40;;;;;;;;;;4975762;28;20225;-70
2022/05/12 12:25:09;;;;;;;4.88;3.25;;;;;;;;;;4971918;28;20229;-72
2022/05/12 12:27:49;;;;;;;1.33;0.93;;;;;;;;;;4987115;28;20777;-73
2022/05/12 12:30:24;;;;;;;2.95;1.10;;;;;;;;;;4967239;28;20257;-71
2022/05/12 12:33:31;;;;;;;2.53;0.90;;;;;;;;;;4958233;28;20265;-72
2022/05/12 12:36:04;;;;;;;3.38;1.08;;;;;;;;;;4973853;28;20576;-70
2022/05/12 12:38:46;;;;;;;2.75;1.05;;;;;;;;;;4979837;28;20229;-70
2022/05/12 12:41:49;;;;;;;1.77;0.80;;;;;;;;;;4981393;28;20703;-72
2022/05/12 12:44:22;;;;;;;42.92;38.80;;;;;;;;;;4969164;28;20224;-73
2022/05/12 12:47:00;;;;;;;2.97;1.50;;;;;;;;;;4949258;28;20234;-71
2022/05/12 12:49:29;;;;;;;3.30;1.30;;;;;;;;;;4970950;28;20691;-71
2022/05/12 12:52:04;;;;;;;3.10;0.85;;;;;;;;;;4967051;28;20229;-73
2022/05/12 12:57:19;;;;;;;3.47;0.90;;;;;;;;;;4978777;28;21163;-72
2022/05/12 12:59:55;;;;;;;1.85;0.98;;;;;;;;;;4967140;28;20261;-72
2022/05/12 13:02:44;;;;;;;4.03;1.05;;;;;;;;;;4977918;28;20283;-71
2022/05/12 13:05:14;;;;;;;1.80;0.88;;;;;;;;;;4977361;28;20301;-71
2022/05/12 13:07:55;;;;;;;3.20;1.10;;;;;;;;;;4963379;28;20222;-72
2022/05/12 13:10:24;;;;;;;1.90;1.00;;;;;;;;;;4954508;28;20434;-71
2022/05/12 13:12:59;;;;;;;3.03;1.13;;;;;;;;;;4969495;28;20255;-73
2022/05/12 13:15:33;;;;;;;3.53;0.98;;;;;;;;;;4950481;28;20246;-73
2022/05/12 13:18:03;;;;;;;1.45;1.10;;;;;;;;;;4970531;28;20224;-72
2022/05/12 13:20:35;;;;;;;3.05;1.00;;;;;;;;;;4973496;28;20229;-71
2022/05/12 13:23:05;;;;;;;2.03;1.10;;;;;;;;;;4980912;28;20309;-72
2022/05/12 13:25:32;;;;;;;2.83;0.88;;;;;;;;;;4975112;28;20226;-71
2022/05/12 13:27:58;;;;;;;2.15;0.80;;;;;;;;;;4989162;28;20224;-72
2022/05/12 13:30:34;;;;;;;1.73;0.80;;;;;;;;;;4980748;28;20225;-71
2022/05/12 13:33:26;;;;;;;3.72;1.08;;;;;;;;;;4974648;28;20248;-72
2022/05/12 13:35:58;;;;;;;2.15;1.10;;;;;;;;;;4959459;28;20277;-72
2022/05/12 13:38:31;;;;;;;2.00;0.95;;;;;;;;;;4987486;28;20237;-71
2022/05/12 13:41:07;;;;;;;4.22;1.10;;;;;;;;;;4960654;28;20317;-72
2022/05/12 13:43:39;;;;;;;2.13;1.08;;;;;;;;;;4997402;28;20222;-72
2022/05/12 13:46:16;;;;;;;2.03;1.00;;;;;;;;;;5005067;28;20245;-71
2022/05/12 13:48:53;;;;;;;1.67;0.88;;;;;;;;;;4975409;28;20224;-73
2022/05/12 13:51:54;;;;;;;2.42;1.02;;;;;;;;;;4994010;28;20774;-71
2022/05/12 13:54:31;;;;;;;2.38;1.20;;;;;;;;;;4947655;28;20220;-73
2022/05/12 13:57:14;;;;;;;2.97;1.13;;;;;;;;;;4951644;28;20221;-71
2022/05/12 13:59:39;;;;;;;2.05;1.08;;;;;;;;;;4993702;28;20298;-72
2022/05/12 14:02:16;;;;;;;1.95;1.10;;;;;;;;;;4962735;28;20715;-73
2022/05/12 14:04:44;;;;;;;2.83;1.00;;;;;;;;;;4950876;28;20319;-72
2022/05/12 14:07:12;;;;;;;1.70;0.90;;;;;;;;;;4935958;28;20213;-71
2022/05/12 14:09:55;;;;;;;3.85;0.98;;;;;;;;;;4995491;28;20309;-72
2022/05/12 14:12:28;;;;;;;2.22;1.00;;;;;;;;;;4981099;28;20252;-72
2022/05/12 14:20:34;;;;;;;2.97;1.00;;;;;;;;;;4994754;28;20229;-72
2022/05/12 14:22:59;;;;;;;3.28;1.10;;;;;;;;;;4965244;28;20324;-72
2022/05/12 14:25:25;;;;;;;3.05;0.98;;;;;;;;;;4984354;28;20248;-72
2022/05/12 14:27:56;;;;;;;3.25;1.15;;;;;;;;;;4979587;28;20222;-72
2022/05/12 14:30:24;;;;;;;2.95;1.00;;;;;;;;;;4992236;28;20248;-72
2022/05/12 14:32:53;;;;;;;3.03;0.90;;;;;;;;;;4965051;28;20377;-72
2022/05/12 14:35:25;;;;;;;3.17;0.95;;;;;;;;;;4966890;28;20245;-72
2022/05/12 14:37:56;;;;;;;2.95;0.90;;;;;;;;;;4967665;28;20682;-75
2022/05/12 14:40:26;;;;;;;1.70;1.00;;;;;;;;;;4979584;28;20221;-72
2022/05/12 14:42:52;;;;;;;4.43;1.20;;;;;;;;;;4967219;28;20232;-74
2022/05/12 14:45:18;;;;;;;3.97;1.02;;;;;;;;;;4961507;28;20304;-73
2022/05/12 14:47:44;;;;;;;1.45;0.90;;;;;;;;;;4962557;28;20226;-73
2022/05/12 14:50:13;;;;;;;2.08;0.85;;;;;;;;;;4953944;28;20227;-73
2022/05/12 14:52:40;;;;;;;1.83;1.00;;;;;;;;;;4956016;28;20233;-74
2022/05/12 14:55:06;;;;;;;2.80;1.10;;;;;;;;;;4981213;28;20229;-74
2022/05/12 14:57:35;;;;;;;2.50;1.05;;;;;;;;;;4963951;28;20296;-72
2022/05/12 15:00:01;;;;;;;1.90;0.80;;;;;;;;;;4981452;28;20229;-74
2022/05/12 15:02:31;;;;;;;1.35;0.80;;;;;;;;;;4982708;28;20296;-74
2022/05/12 15:05:00;;;;;;;5.50;1.10;;;;;;;;;;4959649;28;20230;-73
2022/05/12 15:07:26;;;;;;;2.70;0.93;;;;;;;;;;4952691;28;20663;-73
2022/05/12 15:09:53;;;;;;;1.67;0.90;;;;;;;;;;4956691;28;20777;-72
2022/05/12 15:12:19;;;;;;;2.00;0.90;;;;;;;;;;4977210;28;20275;-73
2022/05/12 15:14:47;;;;;;;2.75;1.00;;;;;;;;;;4961055;28;20231;-72
2022/05/12 15:17:16;;;;;;;2.72;1.10;;;;;;;;;;4973473;28;20252;-71
2022/05/12 15:19:45;;;;;;;1.73;0.80;;;;;;;;;;4975103;28;20233;-70
2022/05/12 15:22:10;;;;;;;1.95;1.00;;;;;;;;;;4963303;28;20267;-72
2022/05/12 15:24:38;;;;;;;2.35;1.00;;;;;;;;;;4970850;28;20229;-72
2022/05/12 15:27:06;;;;;;;2.00;1.05;;;;;;;;;;4958092;28;20230;-72
2022/05/12 15:29:31;;;;;;;2.08;0.90;;;;;;;;;;4976761;28;20221;-72
2022/05/12 15:31:57;;;;;;;4.57;1.25;;;;;;;;;;4970348;28;20863;-73
2022/05/12 15:34:23;;;;;;;2.53;1.20;;;;;;;;;;4985551;28;20328;-73